createdAt,value
2022-10-07T00:03:46.454Z,0.50
2022-10-07T00:08:51.985Z,0.80
2022-10-07T00:13:59.526Z,0.70
2022-10-07T00:19:06.013Z,0.67
2022-10-07T00:24:10.398Z,0.60
2022-10-07T00:29:15.393Z,0.60
2022-10-07T00:34:19.140Z,0.53
2022-10-07T00:39:22.870Z,0.70
2022-10-07T00:44:40.261Z,0.80
2022-10-07T00:49:48.138Z,0.60
2022-10-07T00:54:54.242Z,0.60
2022-10-07T01:00:00.696Z,0.50
2022-10-07T01:05:06.681Z,0.53
2022-10-07T01:10:18.707Z,0.40
2022-10-07T01:15:34.017Z,0.63
2022-10-07T01:20:45.239Z,0.67
2022-10-07T01:26:04.224Z,0.50
2022-10-07T01:31:12.727Z,0.53
2022-10-07T01:36:21.405Z,0.60
2022-10-07T01:41:25.170Z,0.53
2022-10-07T01:46:31.278Z,0.40
2022-10-07T01:51:39.894Z,0.50
2022-10-07T01:56:58.170Z,0.60
2022-10-07T02:02:08.164Z,0.70
2022-10-07T02:07:22.512Z,0.63
2022-10-07T02:12:35.222Z,0.77
2022-10-07T02:17:44.199Z,0.70
2022-10-07T02:22:49.927Z,0.63
2022-10-07T02:27:55.638Z,0.70
2022-10-07T02:33:04.271Z,0.50
2022-10-07T02:38:12.389Z,0.43
2022-10-07T02:43:22.112Z,0.47
2022-10-07T02:48:31.708Z,0.60
2022-10-07T02:53:37.601Z,0.50
2022-10-07T02:58:45.744Z,0.50
2022-10-07T03:03:51.728Z,0.30
2022-10-07T03:08:57.069Z,0.67
2022-10-07T03:14:01.664Z,0.60
2022-10-07T03:19:07.372Z,0.47
2022-10-07T03:24:27.159Z,0.90
2022-10-07T03:29:32.828Z,0.70
2022-10-07T03:34:38.303Z,0.60
2022-10-07T03:39:41.986Z,0.80
2022-10-07T03:44:50.010Z,0.80
2022-10-07T03:49:56.714Z,1.20
2022-10-07T03:55:00.872Z,1.57
2022-10-07T04:00:04.834Z,1.90
2022-10-07T04:05:21.149Z,1.30
2022-10-07T04:10:25.346Z,0.97
2022-10-07T04:15:29.745Z,0.83
2022-10-07T04:20:38.381Z,0.90
2022-10-07T04:25:43.935Z,0.50
2022-10-07T04:30:52.037Z,0.73
2022-10-07T04:36:04.836Z,0.50
2022-10-07T04:41:09.206Z,0.50
2022-10-07T04:46:15.463Z,0.50
2022-10-07T04:51:32.227Z,0.60
2022-10-07T04:56:37.654Z,0.50
2022-10-07T05:01:43.993Z,0.70
2022-10-07T05:06:49.147Z,0.50
2022-10-07T05:11:55.662Z,0.30
2022-10-07T05:16:59.883Z,0.60
2022-10-07T05:22:09.088Z,0.50
2022-10-07T05:27:14.672Z,0.70
2022-10-07T05:32:34.227Z,0.80
2022-10-07T05:37:39.596Z,0.70
2022-10-07T05:42:45.104Z,0.60
2022-10-07T05:47:58.292Z,0.60
2022-10-07T05:53:03.274Z,0.50
2022-10-07T05:58:10.387Z,0.40
2022-10-07T06:03:14.254Z,0.47
2022-10-07T06:08:20.259Z,0.73
2022-10-07T06:13:24.109Z,0.50
2022-10-07T06:18:28.077Z,0.50
2022-10-07T06:23:34.562Z,0.60
2022-10-07T06:28:39.882Z,0.53
2022-10-07T06:33:44.535Z,0.50
2022-10-07T06:38:51.273Z,0.57
2022-10-07T06:44:00.637Z,0.37
2022-10-07T06:49:04.810Z,0.50
2022-10-07T06:54:09.857Z,0.37
2022-10-07T06:59:13.465Z,0.47
2022-10-07T07:04:25.608Z,0.57
2022-10-07T07:09:33.543Z,0.73
2022-10-07T07:14:37.619Z,0.50
2022-10-07T07:19:46.718Z,0.60
2022-10-07T07:24:52.031Z,0.70
2022-10-07T07:29:55.851Z,0.60
2022-10-07T07:35:00.726Z,0.60
2022-10-07T07:40:07.132Z,0.67
2022-10-07T07:45:11.429Z,0.90
2022-10-07T07:50:15.135Z,1.03
2022-10-07T07:55:20.958Z,0.70
2022-10-07T08:00:24.984Z,0.90
2022-10-07T08:05:36.694Z,0.80
2022-10-07T08:10:42.893Z,0.70
2022-10-07T08:15:46.993Z,0.70
2022-10-07T08:20:58.094Z,1.07
2022-10-07T08:26:04.560Z,1.00
2022-10-07T08:31:11.576Z,0.90
2022-10-07T08:36:17.366Z,1.10
2022-10-07T08:41:36.197Z,0.70
2022-10-07T08:46:42.343Z,0.73
2022-10-07T08:51:48.982Z,0.93
2022-10-07T08:56:55.695Z,1.00
2022-10-07T09:02:10.556Z,1.03
2022-10-07T09:07:18.858Z,1.10
2022-10-07T09:12:31.944Z,0.87
2022-10-07T09:17:40.638Z,0.70
2022-10-07T09:22:48.668Z,0.90
2022-10-07T09:27:54.460Z,0.67
2022-10-07T09:32:58.933Z,0.70
2022-10-07T09:38:03.811Z,0.60
2022-10-07T09:43:14.070Z,0.47
2022-10-07T09:48:22.087Z,1.03
2022-10-07T09:53:28.994Z,0.80
2022-10-07T09:58:34.202Z,0.73
2022-10-07T10:03:39.328Z,0.50
2022-10-07T10:08:44.829Z,0.80
2022-10-07T10:13:51.582Z,0.60
2022-10-07T10:18:58.784Z,0.60
2022-10-07T10:24:06.061Z,0.90
2022-10-07T10:29:22.185Z,0.63
2022-10-07T10:34:38.287Z,0.90
2022-10-07T10:39:51.340Z,0.80
2022-10-07T10:45:13.665Z,0.90
2022-10-07T10:50:26.119Z,0.70
2022-10-07T10:55:42.648Z,0.60
2022-10-07T11:00:59.700Z,0.80
2022-10-07T11:06:07.712Z,0.70
2022-10-07T11:11:16.451Z,0.90
2022-10-07T11:16:25.790Z,0.93
2022-10-07T11:21:42.197Z,0.63
2022-10-07T11:26:50.871Z,0.93
2022-10-07T11:31:59.741Z,0.80
2022-10-07T11:37:09.747Z,0.60
2022-10-07T11:42:18.331Z,0.97
2022-10-07T11:47:28.663Z,0.60
2022-10-07T11:52:38.157Z,0.80
2022-10-07T11:57:43.944Z,0.60
2022-10-07T12:02:49.716Z,1.00
2022-10-07T12:08:00.470Z,0.80
2022-10-07T12:13:38.800Z,0.97
2022-10-07T12:19:20.940Z,0.90
2022-10-07T12:24:27.827Z,0.87
2022-10-07T12:29:58.444Z,1.13
2022-10-07T12:35:35.383Z,0.80
2022-10-07T12:40:42.088Z,0.80
2022-10-07T12:45:45.796Z,0.80
2022-10-07T12:50:52.152Z,0.97
2022-10-07T12:55:58.082Z,1.00
2022-10-07T13:01:16.555Z,1.10
2022-10-07T13:06:48.578Z,0.70
2022-10-07T13:12:18.342Z,1.00
2022-10-07T13:17:36.259Z,0.60
2022-10-07T13:22:46.572Z,0.60
2022-10-07T13:27:55.771Z,0.80
2022-10-07T13:33:20.146Z,0.60
2022-10-07T13:38:25.639Z,0.50
2022-10-07T13:43:32.390Z,0.50
2022-10-07T13:48:44.420Z,0.80
2022-10-07T13:53:55.229Z,0.87
2022-10-07T13:59:00.923Z,0.70
2022-10-07T14:04:11.976Z,0.67
2022-10-07T14:09:21.187Z,0.90
2022-10-07T14:14:28.404Z,0.80
2022-10-07T14:19:33.888Z,0.83
2022-10-07T14:24:37.400Z,0.60
2022-10-07T14:29:42.344Z,0.60
2022-10-07T14:35:03.406Z,0.70
2022-10-07T14:40:18.702Z,0.50
2022-10-07T14:45:23.821Z,0.70
2022-10-07T14:50:28.052Z,0.60
2022-10-07T14:55:33.128Z,0.50
2022-10-07T15:00:39.866Z,0.50
2022-10-07T15:05:43.606Z,0.80
2022-10-07T15:10:47.186Z,0.97
2022-10-07T15:15:52.272Z,0.70
2022-10-07T15:20:57.239Z,0.70
2022-10-07T15:26:02.432Z,0.40
2022-10-07T15:31:09.030Z,0.83
2022-10-07T15:36:13.171Z,0.80
2022-10-07T15:41:30.771Z,0.70
2022-10-07T15:46:36.503Z,0.60
2022-10-07T15:51:40.429Z,0.63
2022-10-07T15:56:45.458Z,0.60
2022-10-07T16:01:52.397Z,0.37
2022-10-07T16:06:55.937Z,0.53
2022-10-07T16:11:59.916Z,0.50
2022-10-07T16:17:04.755Z,0.50
2022-10-07T16:22:08.315Z,0.40
2022-10-07T16:27:11.829Z,0.30
2022-10-07T16:32:16.747Z,0.53
2022-10-07T16:37:21.060Z,0.70
2022-10-07T16:42:24.645Z,0.70
2022-10-07T16:47:29.772Z,0.50
2022-10-07T16:52:34.343Z,0.63
2022-10-07T16:57:38.255Z,0.63
2022-10-07T17:02:43.224Z,0.60
2022-10-07T17:07:49.048Z,0.80
2022-10-07T17:12:52.818Z,0.60
2022-10-07T17:17:57.682Z,0.70
2022-10-07T17:23:01.245Z,0.60
2022-10-07T17:28:14.228Z,0.70
2022-10-07T17:33:20.577Z,0.53
2022-10-07T17:38:24.969Z,0.60
2022-10-07T17:43:28.446Z,0.50
2022-10-07T17:48:36.202Z,0.80
2022-10-07T17:53:40.689Z,0.60
2022-10-07T17:58:45.853Z,0.40
2022-10-07T18:03:53.774Z,0.60
2022-10-07T18:08:59.042Z,0.43
2022-10-07T18:14:20.074Z,0.63
2022-10-07T18:19:26.092Z,1.53
2022-10-07T18:24:30.262Z,1.70
2022-10-07T18:29:41.452Z,1.00
2022-10-07T18:34:46.524Z,0.80
2022-10-07T18:39:50.068Z,0.70
2022-10-07T18:44:54.229Z,0.50
2022-10-07T18:49:59.243Z,0.77
2022-10-07T18:55:03.782Z,0.70
2022-10-07T19:00:09.226Z,0.60
2022-10-07T19:05:14.194Z,0.50
2022-10-07T19:10:17.811Z,0.57
2022-10-07T19:15:21.323Z,0.50
2022-10-07T19:20:26.450Z,0.50
2022-10-07T19:25:47.876Z,0.43
2022-10-07T19:30:52.017Z,0.40
2022-10-07T19:35:57.275Z,0.30
2022-10-07T19:41:01.033Z,0.40
2022-10-07T19:46:06.218Z,0.40
2022-10-07T19:51:17.476Z,0.40
2022-10-07T19:56:23.138Z,0.40
2022-10-07T20:01:28.670Z,0.50
2022-10-07T20:06:36.571Z,0.57
2022-10-07T20:11:40.528Z,0.50
2022-10-07T20:16:47.055Z,0.83
2022-10-07T20:21:51.995Z,0.60
2022-10-07T20:26:55.482Z,0.77
2022-10-07T20:31:59.061Z,0.87
2022-10-07T20:37:04.043Z,0.50
2022-10-07T20:42:25.651Z,0.30
2022-10-07T20:47:32.538Z,0.40
2022-10-07T20:52:38.171Z,0.40
2022-10-07T20:57:41.928Z,0.30
2022-10-07T21:02:45.992Z,0.30
2022-10-07T21:07:54.531Z,0.23
2022-10-07T21:12:58.532Z,0.57
2022-10-07T21:18:03.235Z,0.80
2022-10-07T21:23:08.096Z,0.60
2022-10-07T21:28:11.741Z,0.40
2022-10-07T21:33:52.317Z,0.70
2022-10-07T21:39:00.597Z,0.53
2022-10-07T21:44:06.181Z,0.40
2022-10-07T21:49:09.880Z,0.60
2022-10-07T21:54:15.636Z,0.63
2022-10-07T21:59:19.666Z,0.70
2022-10-07T22:04:24.393Z,0.53
2022-10-07T22:09:36.900Z,0.50
2022-10-07T22:14:40.557Z,0.40
2022-10-07T22:19:44.239Z,0.50
2022-10-07T22:24:49.176Z,0.50
2022-10-07T22:29:52.731Z,0.30
2022-10-07T22:35:28.207Z,0.50
2022-10-07T22:40:33.073Z,0.50
2022-10-07T22:45:36.888Z,0.30
2022-10-07T22:50:40.448Z,0.30
2022-10-07T22:55:45.557Z,0.40
2022-10-07T23:00:50.631Z,0.50
2022-10-07T23:05:54.223Z,0.50
2022-10-07T23:10:59.967Z,0.40
2022-10-07T23:16:06.610Z,0.50
2022-10-07T23:21:13.072Z,0.40
2022-10-07T23:26:19.808Z,0.60
2022-10-07T23:31:27.055Z,0.40
2022-10-07T23:36:31.681Z,0.40
2022-10-07T23:41:36.849Z,0.40
2022-10-07T23:46:40.648Z,0.60
2022-10-07T23:51:44.306Z,0.50
2022-10-07T23:56:49.277Z,0.70
